Terminal Aerodrome Forecast
Issued by NWS Brownsville, TX

Home | Current Version | Previous Version | Text Only | Print | Product List | Glossary On
Versions: 1 2 3 4 5 6 7 8 9 10 11 12 13
000
FTUS44 KBRO 240541
TAFHRL
TAF
KHRL 240541Z 2406/2506 10006KT P6SM VCSH SCT020
     FM241400 14010KT P6SM SCT040
     FM241800 13012G18KT P6SM VCTS BKN040CB
     FM242300 12008KT P6SM SCT030=

USA.gov is the U.S. government's official web portal to all federal, state and local government web resources and services.